Data for 02/28/2017

Time Sea-Level Adjusted Pressure Absolute Pressure Temperature Relative Humidity Dew Point   
(mb) (inHg) (mb) (inHg) (C) (F) (%) (C) (F)
00:05 1006 29.71 835 24.66 -5.6 21.9 60 -12.3 9.9
00:10 1006 29.71 835 24.66 -5.4 22.2 58 -12.4 9.6
00:15 1006 29.71 835 24.66 -5.5 22 57 -12.7 9.2
00:20 1006 29.71 835 24.66 -5.5 22.1 61 -12 10.5
00:25 1006 29.71 835 24.66 -5.9 21.4 58 -12.9 8.7
00:30 1006 29.71 835 24.66 -5.8 21.6 56 -13.3 8.1
00:35 1006 29.71 835 24.66 -5.6 21.9 56 -13 8.5
00:40 1006 29.71 835 24.66 -5.8 21.6 57 -13 8.5
00:45 1006 29.71 835 24.66 -5.8 21.6 58 -12.7 9.2
00:50 1006 29.71 835 24.66 -5.7 21.7 55 -13.4 7.8
00:55 1006 29.71 835 24.66 -5.6 21.9 60 -12.2 10
01:00 1006 29.71 835 24.66 -5.8 21.5 58 -12.9 8.8
01:05 1006 29.71 835 24.66 -5.7 21.7 57 -13 8.6
01:10 1006 29.71 835 24.66 -5.3 22.4 54 -13.3 8.1
01:15 1006 29.71 835 24.66 -5.1 22.8 56 -12.7 9.2
01:20 1006 29.71 835 24.66 -5.2 22.7 57 -12.3 9.8
01:25 1006 29.71 835 24.66 -6 21.2 60 -12.6 9.3
01:30 1006 29.71 835 24.66 -6.1 21 58 -13.1 8.4
01:35 1006 29.71 835 24.66 -5.7 21.8 54 -13.6 7.5
01:40 1006 29.71 835 24.66 -5.4 22.2 54 -13.4 7.8
01:45 1006 29.71 835 24.66 -5.1 22.8 52 -13.5 7.7
01:50 1006 29.71 835 24.66 -4.8 23.3 54 -12.8 9
01:55 1006 29.71 835 24.66 -5.1 22.8 55 -12.9 8.9
02:00 1006 29.71 835 24.66 -5.2 22.6 51 -13.9 6.9
02:05 1006 29.71 835 24.66 -4.8 23.4 49 -14.1 6.7
02:10 1006 29.71 835 24.66 -4.6 23.6 47 -14.2 6.4
02:15 1006 29.71 835 24.66 -4.7 23.5 48 -14.2 6.4
02:20 1006 29.71 835 24.66 -4.8 23.4 47 -14.4 6.1
02:25 1006 29.71 835 24.66 -5 23.1 49 -14 6.7
02:30 1006 29.71 835 24.66 -5.4 22.2 55 -13.1 8.4
02:35 1006 29.71 835 24.66 -6.3 20.7 54 -14 6.8
02:40 1006 29.71 835 24.66 -6.3 20.7 55 -13.9 6.9
02:45 1006 29.71 835 24.66 -6.2 20.8 57 -13.4 7.9
02:50 1006 29.71 835 24.66 -6.3 20.7 57 -13.6 7.6
02:55 1006 29.71 835 24.66 -6.5 20.3 58 -13.4 7.9
03:00 1006 29.71 835 24.66 -7 19.3 59 -13.7 7.4
03:05 1005 29.68 835 24.66 -7.2 19.1 61 -13.6 7.6
03:10 1005 29.68 835 24.66 -7.2 19 59 -13.9 7.1
03:15 1005 29.68 835 24.66 -7.1 19.2 58 -13.9 6.9
03:20 1005 29.68 835 24.66 -7 19.4 59 -13.8 7.2
03:25 1005 29.68 835 24.66 -7.1 19.2 59 -13.9 7
03:30 1005 29.68 835 24.66 -7.1 19.2 58 -14 6.8
03:35 1005 29.68 835 24.66 -7.2 19.1 59 -13.9 7
03:40 1005 29.68 835 24.66 -7.3 19 58 -14.1 6.6
03:45 1006 29.71 835 24.66 -7.3 18.9 59 -14 6.8
03:50 1006 29.71 835 24.66 -7.3 18.8 58 -14.2 6.5
03:55 1005 29.68 835 24.66 -7.1 19.3 55 -14.6 5.7
04:00 1006 29.71 835 24.66 -7 19.5 54 -14.7 5.6
04:05 1006 29.71 835 24.66 -7 19.5 54 -14.8 5.4
04:10 1006 29.71 835 24.66 -6.9 19.5 54 -14.9 5.2
04:15 1006 29.71 835 24.66 -6.9 19.5 53 -14.9 5.1
04:20 1006 29.71 835 24.66 -7.1 19.3 54 -14.9 5.2
04:25 1006 29.71 835 24.66 -7.3 18.9 54 -15 5
04:30 1006 29.71 835 24.66 -7.3 18.8 55 -15 5
04:35 1006 29.71 835 24.66 -7.5 18.5 55 -15 5
04:40 1006 29.71 835 24.66 -7.5 18.5 54 -15.2 4.6
04:45 1006 29.71 835 24.66 -7.6 18.4 55 -15.1 4.8
04:50 1006 29.71 835 24.66 -7.7 18.1 55 -15.2 4.7
04:55 1006 29.71 835 24.66 -7.8 18 55 -15.3 4.4
05:00 1006 29.71 835 24.66 -7.6 18.3 53 -15.7 3.8
05:05 1006 29.71 835 24.66 -7.6 18.4 52 -15.8 3.5
05:10 1006 29.71 835 24.66 -7.3 18.9 50 -16 3.2
05:15 1006 29.71 835 24.66 -7.3 18.8 52 -15.6 4
05:20 1006 29.71 835 24.66 -7.4 18.7 52 -15.6 3.9
05:25 1006 29.71 835 24.66 -7.5 18.5 53 -15.4 4.3
05:30 1006 29.71 835 24.66 -7.6 18.4 54 -15.4 4.3
05:35 1006 29.71 835 24.66 -7.6 18.3 54 -15.4 4.3
05:40 1006 29.71 835 24.66 -7.4 18.6 53 -15.5 4
05:45 1006 29.71 835 24.66 -7.4 18.6 53 -15.4 4.2
05:50 1006 29.71 835 24.66 -7.5 18.6 53 -15.5 4.2
05:55 1006 29.71 835 24.66 -7.4 18.7 52 -15.7 3.8
06:00 1006 29.71 835 24.66 -7.4 18.8 52 -15.7 3.7
06:05 1006 29.71 835 24.66 -7.2 19 52 -15.5 4.1
06:10 1006 29.71 835 24.66 -7.1 19.2 51 -15.7 3.8
06:15 1006 29.71 835 24.66 -7 19.4 50 -15.8 3.5
06:20 1006 29.71 835 24.66 -6.9 19.6 49 -15.8 3.5
06:25 1006 29.71 835 24.66 -6.8 19.8 49 -15.8 3.5
06:30 1006 29.71 835 24.66 -6.8 19.8 49 -15.7 3.8
06:35 1006 29.71 835 24.66 -6.8 19.7 50 -15.5 4.1
06:40 1006 29.71 835 24.66 -6.9 19.6 49 -15.8 3.5
06:45 1006 29.71 835 24.66 -6.8 19.7 49 -15.8 3.6
06:50 1006 29.71 835 24.66 -6.8 19.8 51 -15.4 4.3
06:55 1006 29.71 835 24.66 -6.8 19.7 50 -15.6 3.9
07:00 1006 29.71 835 24.66 -6.6 20.2 50 -15.4 4.3
07:05 1006 29.71 835 24.66 -6.4 20.4 50 -15.2 4.7
07:10 1006 29.71 835 24.66 -6.4 20.5 50 -15.3 4.5
07:15 1006 29.71 835 24.66 -6.5 20.2 50 -15.3 4.4
07:20 1006 29.71 835 24.66 -6.7 20 52 -14.9 5.2
07:25 1006 29.71 835 24.66 -6.2 20.8 46 -16.2 2.9
07:30 1006 29.71 835 24.66 -5.5 22.1 45 -15.6 3.9
07:35 1006 29.71 835 24.66 -5.4 22.2 48 -14.9 5.3
07:40 1006 29.71 835 24.66 -5.4 22.2 49 -14.5 5.9
07:45 1006 29.71 835 24.66 -5.8 21.5 49 -15 5.1
07:50 1006 29.71 835 24.66 -6.1 20.9 50 -15 5
07:55 1006 29.71 835 24.66 -6.1 21 49 -15.2 4.7
08:00 1006 29.71 835 24.66 -5.4 22.2 47 -15.1 4.7
08:05 1006 29.71 835 24.66 -5 23 42 -16.1 2.9
08:10 1006 29.71 835 24.66 -4.6 23.7 48 -14 6.7
08:15 1006 29.71 836 24.69 -5.1 22.8 49 -14.1 6.6
08:20 1006 29.71 836 24.69 -5.4 22.3 51 -14.1 6.6
08:25 1006 29.71 836 24.69 -5.2 22.7 44 -15.6 3.9
08:30 1006 29.71 836 24.69 -4.6 23.8 43 -15.3 4.5
08:35 1006 29.71 836 24.69 -4.5 23.9 43 -15.2 4.6
08:40 1006 29.71 836 24.69 -4.5 23.8 43 -15.2 4.6
08:45 1006 29.71 836 24.69 -4.4 24 43 -15.3 4.5
08:50 1006 29.71 836 24.69 -4.3 24.3 43 -15.1 4.8
08:55 1006 29.71 836 24.69 -4.2 24.5 43 -15 5
09:00 1007 29.74 836 24.69 -3.9 24.9 41 -15.3 4.4
09:05 1007 29.74 836 24.69 -3.5 25.7 40 -15.1 4.8
09:10 1007 29.74 836 24.69 -3 26.6 39 -15 4.9
09:15 1007 29.74 836 24.69 -2 28.4 38 -14.7 5.6
09:20 1007 29.74 836 24.69 -1 30.2 33 -15.5 4.1
09:25 1007 29.74 836 24.69 -1.8 28.8 36 -15.1 4.8
09:30 1007 29.74 836 24.69 -1.7 28.9 36 -14.8 5.4
09:35 1007 29.74 836 24.69 -1.7 28.9 35 -15.2 4.6
09:40 1007 29.74 836 24.69 -1.5 29.4 32 -16.1 3.1
09:45 1007 29.74 836 24.69 -1.3 29.6 31 -16.3 2.7
09:50 1007 29.74 836 24.69 -0.7 30.7 31 -15.7 3.7
09:55 1007 29.74 836 24.69 -0.6 30.9 31 -15.9 3.3
10:00 1007 29.74 836 24.69 -0.6 30.9 30 -16.1 3.1
10:05 1007 29.74 836 24.69 -0.9 30.4 31 -16 3.3
10:10 1007 29.74 836 24.69 -0.8 30.6 31 -15.9 3.4
10:15 1007 29.74 836 24.69 -0.9 30.3 31 -16.3 2.7
10:20 1007 29.74 836 24.69 -2 28.4 36 -15.3 4.5
10:25 1007 29.74 836 24.69 -2.5 27.5 34 -16.2 2.8
10:30 1007 29.74 836 24.69 -2.4 27.7 35 -16 3.3
10:35 1007 29.74 836 24.69 -2.2 28.1 36 -15.5 4.1
10:40 1007 29.74 836 24.69 -1.9 28.6 34 -15.8 3.6
10:45 1007 29.74 836 24.69 -2.3 27.9 37 -15 4.9
10:50 1007 29.74 836 24.69 -1.7 28.9 33 -16.1 3.1
10:55 1007 29.74 836 24.69 -1.3 29.6 31 -16.5 2.2
11:00 1007 29.74 836 24.69 -1 30.1 30 -16.4 2.4
11:05 1007 29.74 836 24.69 -1.1 30 30 -16.7 2
11:10 1007 29.74 836 24.69 -1 30.2 29 -16.8 1.7
11:15 1007 29.74 836 24.69 -1 30.2 30 -16.4 2.5
11:20 1007 29.74 836 24.69 -0.9 30.4 30 -16.6 2
11:25 1007 29.74 836 24.69 -0.6 30.9 29 -16.7 1.9
11:30 1007 29.74 836 24.69 -0.9 30.4 30 -16.4 2.5
11:35 1007 29.74 836 24.69 -0.6 30.9 30 -16.3 2.6
11:40 1007 29.74 836 24.69 -0.7 30.7 30 -16.2 2.9
11:45 1007 29.74 836 24.69 -0.6 30.9 32 -15.6 4
11:50 1007 29.74 836 24.69 -0.2 31.6 30 -15.7 3.8
11:55 1007 29.74 836 24.69 -0.2 31.6 29 -16.2 2.9
12:00 1007 29.74 836 24.69 -0.8 30.6 31 -15.9 3.4
12:05 1007 29.74 836 24.69 -0.8 30.6 29 -16.6 2.1
12:10 1007 29.74 836 24.69 -0.8 30.5 29 -16.8 1.8
12:15 1007 29.74 836 24.69 -0.7 30.7 26 -17.8 -0.1
12:20 1007 29.74 836 24.69 -0.3 31.5 25 -18 -0.4
12:25 1007 29.74 836 24.69 -0.2 31.7 26 -17.5 0.6
12:30 1007 29.74 836 24.69 0.2 32.4 28 -16.4 2.5
12:35 1007 29.74 836 24.69 0.4 32.7 28 -16.2 2.8
12:40 1007 29.74 836 24.69 -0.2 31.6 29 -16.4 2.5
12:45 1007 29.74 836 24.69 -0.4 31.3 29 -16.2 2.9
12:50 1007 29.74 836 24.69 0 32 28 -16.4 2.4
12:55 1007 29.74 836 24.69 -0.1 31.8 28 -16.6 2.1
13:00 1007 29.74 836 24.69 0.4 32.7 28 -16 3.2
13:05 1007 29.74 836 24.69 0.3 32.5 30 -15.5 4
13:10 1007 29.74 836 24.69 0.1 32.3 31 -15 5
13:15 1007 29.74 837 24.72 -0.2 31.7 32 -15 5.1
13:20 1007 29.74 837 24.72 -0.5 31.1 32 -15.2 4.7
13:25 1007 29.74 837 24.72 -0.7 30.7 34 -14.8 5.4
13:30 1007 29.74 837 24.72 -0.6 30.9 36 -14.1 6.7
13:35 1007 29.74 837 24.72 -0.4 31.2 40 -12.5 9.6
13:40 1008 29.77 837 24.72 -0.8 30.6 48 -10.5 13.1
13:45 1008 29.77 837 24.72 -2 28.5 57 -9.4 15
13:50 1008 29.77 837 24.72 -2.4 27.6 58 -9.7 14.5
13:55 1008 29.77 837 24.72 -2.7 27.2 54 -10.6 12.8
14:00 1008 29.77 837 24.72 -2.3 27.9 48 -11.9 10.6
14:05 1008 29.77 837 24.72 -2.1 28.3 49 -11.5 11.3
14:10 1008 29.77 837 24.72 -2 28.3 50 -11.1 12
14:15 1008 29.77 837 24.72 -1.8 28.8 47 -11.6 11.1
14:20 1008 29.77 837 24.72 -1.1 30 41 -12.7 9.2
14:25 1008 29.77 837 24.72 -1 30.1 37 -13.9 7
14:30 1008 29.77 837 24.72 -1.1 30 45 -11.6 11.1
14:35 1008 29.77 838 24.75 -1.8 28.7 50 -11 12.2
14:40 1009 29.8 838 24.75 -2.4 27.7 61 -8.9 15.9
14:45 1009 29.8 838 24.75 -3.1 26.3 65 -8.8 16.2
14:50 1009 29.8 838 24.75 -3.4 26 62 -9.6 14.8
14:55 1009 29.8 838 24.75 -2.8 26.9 59 -9.8 14.4
15:00 1009 29.8 838 24.75 -2.3 27.9 52 -10.9 12.4
15:05 1009 29.8 838 24.75 -2.1 28.3 53 -10.5 13
15:10 1009 29.8 838 24.75 -2 28.4 51 -10.9 12.3
15:15 1009 29.8 839 24.78 -2 28.4 56 -9.8 14.4
15:20 1009 29.8 839 24.78 -2 28.3 55 -9.9 14.2
15:25 1010 29.83 839 24.78 -2.1 28.3 55 -9.9 14.3
15:30 1010 29.83 839 24.78 -1.8 28.7 54 -9.9 14.3
15:35 1010 29.83 839 24.78 -1.3 29.7 53 -9.7 14.6
15:40 1010 29.83 839 24.78 -1.3 29.6 52 -10 13.9
15:45 1010 29.83 839 24.78 -1.7 29 51 -10.5 13.1
15:50 1010 29.83 839 24.78 -1.8 28.8 51 -10.6 12.9
15:55 1010 29.83 839 24.78 -1.5 29.3 50 -10.7 12.7
16:00 1010 29.83 839 24.78 -1 30.2 49 -10.5 13.2
16:05 1010 29.83 839 24.78 -1 30.1 46 -11.3 11.7
16:10 1010 29.83 839 24.78 -1 30.2 45 -11.6 11.2
16:15 1010 29.83 839 24.78 -0.7 30.7 42 -12.1 10.2
16:20 1010 29.83 839 24.78 -0.6 30.9 41 -12.3 9.9
16:25 1010 29.83 839 24.78 -0.4 31.3 41 -12.2 10
16:30 1010 29.83 840 24.81 -0.4 31.4 41 -12 10.5
16:35 1010 29.83 840 24.81 -1 30.2 41 -12.6 9.3
16:40 1011 29.85 840 24.81 -1.4 29.5 39 -13.7 7.4
16:45 1011 29.85 840 24.81 -1.5 29.4 40 -13.3 8
16:50 1011 29.85 840 24.81 -1.6 29.2 40 -13.5 7.7
16:55 1011 29.85 840 24.81 -1.8 28.8 42 -13 8.5
17:00 1011 29.85 840 24.81 -2 28.5 44 -12.8 9
17:05 1011 29.85 840 24.81 -1.6 29.1 41 -13.2 8.2
17:10 1011 29.85 840 24.81 -1.1 30.1 39 -13.4 7.9
17:15 1011 29.85 840 24.81 -0.8 30.5 38 -13.4 7.9
17:20 1011 29.85 840 24.81 -1.3 29.7 38 -13.7 7.3
17:25 1011 29.85 841 24.83 -1.8 28.8 38 -14.4 6.1
17:30 1011 29.85 841 24.83 -2 28.5 37 -14.7 5.5
17:35 1012 29.88 841 24.83 -2.1 28.2 37 -14.9 5.2
17:40 1012 29.88 841 24.83 -2.1 28.2 37 -14.8 5.3
17:45 1012 29.88 841 24.83 -2.2 28 37 -14.9 5.2
17:50 1012 29.88 841 24.83 -2.3 27.9 34 -16.3 2.7
17:55 1012 29.88 841 24.83 -2.3 27.9 35 -15.9 3.4
18:00 1012 29.88 841 24.83 -2.4 27.6 36 -15.6 4
18:05 1012 29.88 841 24.83 -2.5 27.4 37 -15.4 4.2
18:10 1012 29.88 841 24.83 -2.7 27.2 38 -15.2 4.6
18:15 1012 29.88 841 24.83 -2.8 26.9 38 -15.2 4.6
18:20 1012 29.88 841 24.83 -2.9 26.8 38 -15.2 4.7
18:25 1012 29.88 842 24.86 -2.9 26.7 39 -15.1 4.9
18:30 1012 29.88 842 24.86 -3 26.5 40 -14.9 5.1
18:35 1013 29.91 842 24.86 -3.1 26.4 41 -14.7 5.5
18:40 1013 29.91 842 24.86 -3.2 26.3 41 -14.5 5.8
18:45 1013 29.91 842 24.86 -3.3 26 42 -14.4 6
18:50 1013 29.91 842 24.86 -3.4 25.9 43 -14.2 6.4
18:55 1013 29.91 842 24.86 -3.4 25.9 45 -13.7 7.3
19:00 1013 29.91 842 24.86 -3.3 26 45 -13.8 7.2
19:05 1013 29.91 843 24.89 -3.4 25.9 46 -13.5 7.8
19:10 1014 29.94 843 24.89 -3.4 25.9 45 -13.7 7.3
19:15 1014 29.94 843 24.89 -3.4 25.9 46 -13.4 7.9
19:20 1014 29.94 843 24.89 -3.4 25.9 47 -13.1 8.4
19:25 1014 29.94 843 24.89 -3.5 25.8 47 -13.2 8.3
19:30 1014 29.94 843 24.89 -3.5 25.6 48 -13.2 8.3
19:35 1014 29.94 843 24.89 -3.7 25.4 47 -13.4 7.8
19:40 1014 29.94 843 24.89 -3.8 25.2 47 -13.5 7.7
19:45 1014 29.94 843 24.89 -3.9 25 47 -13.7 7.4
19:50 1014 29.94 843 24.89 -4 24.8 46 -13.9 6.9
19:55 1014 29.94 843 24.89 -4.2 24.4 46 -14.3 6.2
20:00 1014 29.94 844 24.92 -4.3 24.2 41 -15.7 3.7
20:05 1014 29.94 844 24.92 -4.3 24.2 40 -15.9 3.4
20:10 1014 29.94 844 24.92 -4.4 24 40 -16.1 3.1
20:15 1015 29.97 844 24.92 -4.5 23.9 39 -16.4 2.5
20:20 1015 29.97 844 24.92 -4.5 23.8 39 -16.4 2.5
20:25 1015 29.97 844 24.92 -4.7 23.6 40 -16.4 2.5
20:30 1015 29.97 844 24.92 -4.8 23.4 39 -16.7 1.9
20:35 1015 29.97 844 24.92 -4.8 23.4 39 -16.7 2
20:40 1015 29.97 844 24.92 -4.7 23.5 37 -17.2 1
20:45 1015 29.97 844 24.92 -4.7 23.6 37 -17.3 0.9
20:50 1015 29.97 844 24.92 -4.6 23.7 37 -17.1 1.1
20:55 1015 29.97 845 24.95 -4.7 23.6 38 -17.1 1.3
21:00 1015 29.97 845 24.95 -4.7 23.5 38 -16.9 1.6
21:05 1016 30 845 24.95 -4.8 23.4 39 -16.7 1.9
21:10 1016 30 845 24.95 -4.9 23.3 39 -16.9 1.5
21:15 1016 30 845 24.95 -4.9 23.1 40 -16.7 2
21:20 1016 30 845 24.95 -5 23.1 39 -17 1.4
21:25 1016 30 845 24.95 -5 23 40 -16.6 2.2
21:30 1016 30 845 24.95 -5 23 40 -16.5 2.3
21:35 1016 30 845 24.95 -5 23 41 -16.5 2.4
21:40 1016 30 845 24.95 -5 22.9 41 -16.3 2.7
21:45 1016 30 845 24.95 -5 22.9 42 -16.1 3.1
21:50 1016 30 846 24.98 -5.1 22.8 42 -16 3.2
21:55 1016 30 846 24.98 -5.1 22.8 42 -16.1 2.9
22:00 1016 30 846 24.98 -5.1 22.8 42 -16.2 2.8
22:05 1017 30.03 846 24.98 -5.2 22.7 42 -16.1 2.9
22:10 1017 30.03 846 24.98 -5.3 22.5 43 -15.9 3.3
22:15 1017 30.03 846 24.98 -5.4 22.3 43 -16.1 3
22:20 1017 30.03 846 24.98 -5.4 22.2 43 -16 3.1
22:25 1017 30.03 846 24.98 -5.5 22.1 43 -16.1 3
22:30 1017 30.03 846 24.98 -5.5 22.1 43 -16.2 2.8
22:35 1017 30.03 846 24.98 -5.6 21.9 44 -16.2 2.9
22:40 1017 30.03 846 24.98 -5.7 21.8 44 -16.2 2.8
22:45 1017 30.03 846 24.98 -5.8 21.6 44 -16.2 2.8
22:50 1017 30.03 846 24.98 -5.9 21.5 44 -16.3 2.7
22:55 1017 30.03 846 24.98 -6 21.3 45 -16.2 2.9
23:00 1017 30.03 846 24.98 -6.1 21.1 44 -16.4 2.5
23:05 1017 30.03 846 24.98 -6.2 20.9 45 -16.1 3
23:10 1017 30.03 847 25.01 -6.4 20.5 47 -15.9 3.4
23:15 1017 30.03 847 25.01 -6.6 20.1 46 -16.3 2.6
23:20 1017 30.03 847 25.01 -6.5 20.2 45 -16.6 2.1
23:25 1018 30.06 847 25.01 -6.5 20.4 45 -16.5 2.3
23:30 1018 30.06 847 25.01 -6.5 20.2 46 -16.5 2.3
23:35 1018 30.06 847 25.01 -6.6 20.1 46 -16.5 2.3
23:40 1018 30.06 847 25.01 -6.6 20 45 -16.6 2.1
23:45 1018 30.06 847 25.01 -6.7 20 45 -16.9 1.7
23:50 1018 30.06 847 25.01 -6.6 20 44 -17 1.4
23:55 1018 30.06 847 25.01 -6.7 19.9 44 -17.1 1.2
24:00 1018 30.06 847 25.01 -6.7 19.9 44 -17.1 1.2